createdAt,value
2022-08-29T00:02:48.452Z,93.60
2022-08-29T00:05:39.882Z,93.60
2022-08-29T00:08:27.779Z,93.60
2022-08-29T00:11:17.710Z,93.60
2022-08-29T00:14:05.732Z,93.70
2022-08-29T00:16:54.582Z,93.50
2022-08-29T00:19:42.474Z,93.60
2022-08-29T00:22:30.723Z,93.60
2022-08-29T00:25:18.533Z,93.70
2022-08-29T00:28:08.453Z,93.70
2022-08-29T00:30:56.094Z,93.70
2022-08-29T00:33:43.902Z,93.70
2022-08-29T00:36:31.938Z,93.70
2022-08-29T00:39:23.737Z,93.80
2022-08-29T00:42:11.257Z,93.80
2022-08-29T00:45:00.439Z,93.80
2022-08-29T00:47:53.390Z,93.80
2022-08-29T00:50:45.619Z,93.90
2022-08-29T00:53:39.010Z,94.00
2022-08-29T00:56:27.052Z,94.00
2022-08-29T00:59:18.395Z,93.90
2022-08-29T01:02:08.941Z,94.10
2022-08-29T01:04:57.855Z,94.10
2022-08-29T01:07:46.424Z,94.10
2022-08-29T01:10:48.863Z,94.00
2022-08-29T01:13:40.271Z,93.90
2022-08-29T01:16:28.057Z,94.00
2022-08-29T01:19:24.436Z,94.00
2022-08-29T01:22:25.315Z,93.90
2022-08-29T01:25:18.907Z,94.00
2022-08-29T01:28:12.153Z,94.00
2022-08-29T01:31:02.916Z,94.00
2022-08-29T01:33:53.319Z,94.00
2022-08-29T01:36:47.628Z,94.00
2022-08-29T01:39:38.457Z,94.00
2022-08-29T01:42:27.790Z,94.00
2022-08-29T01:45:24.910Z,94.00
2022-08-29T01:48:12.681Z,94.00
2022-08-29T01:51:00.623Z,94.00
2022-08-29T01:53:48.624Z,94.10
2022-08-29T01:56:40.206Z,94.00
2022-08-29T01:59:31.603Z,94.10
2022-08-29T02:02:21.962Z,94.00
2022-08-29T02:05:10.024Z,94.00
2022-08-29T02:07:58.115Z,94.00
2022-08-29T02:10:45.646Z,94.10
2022-08-29T02:13:33.653Z,94.10
2022-08-29T02:16:23.775Z,94.10
2022-08-29T02:19:11.240Z,94.10
2022-08-29T02:22:00.003Z,94.10
2022-08-29T02:24:47.632Z,94.10
2022-08-29T02:27:35.161Z,94.00
2022-08-29T02:30:25.903Z,94.10
2022-08-29T02:33:15.842Z,94.10
2022-08-29T02:36:08.832Z,94.10
2022-08-29T02:38:58.461Z,94.10
2022-08-29T02:41:46.205Z,94.10
2022-08-29T02:44:34.476Z,94.10
2022-08-29T02:47:22.412Z,94.10
2022-08-29T02:50:12.321Z,94.20
2022-08-29T02:52:59.863Z,94.10
2022-08-29T02:55:49.530Z,94.10
2022-08-29T02:58:37.116Z,94.20
2022-08-29T03:01:26.917Z,94.20
2022-08-29T03:04:14.583Z,94.20
2022-08-29T03:07:05.527Z,94.20
2022-08-29T03:09:53.868Z,94.20
2022-08-29T03:12:42.368Z,94.20
2022-08-29T03:15:30.600Z,94.30
2022-08-29T03:18:18.952Z,94.30
2022-08-29T03:21:18.012Z,94.30
2022-08-29T03:24:07.272Z,94.20
2022-08-29T03:26:56.651Z,94.30
2022-08-29T03:29:45.083Z,94.30
2022-08-29T03:32:32.495Z,94.40
2022-08-29T03:35:20.487Z,94.70
2022-08-29T03:38:08.413Z,94.30
2022-08-29T03:40:57.568Z,94.30
2022-08-29T03:43:46.107Z,94.30
2022-08-29T03:46:33.702Z,94.30
2022-08-29T03:49:22.036Z,94.30
2022-08-29T03:52:10.675Z,94.40
2022-08-29T03:54:59.000Z,94.40
2022-08-29T03:57:48.880Z,94.40
2022-08-29T04:00:36.587Z,94.40
2022-08-29T04:03:30.850Z,94.40
2022-08-29T04:06:20.638Z,94.30
2022-08-29T04:09:08.371Z,94.40
2022-08-29T04:11:56.134Z,94.40
2022-08-29T04:14:45.370Z,94.50
2022-08-29T04:17:33.531Z,94.50
2022-08-29T04:20:25.005Z,94.60
2022-08-29T04:23:14.615Z,94.60
2022-08-29T04:26:31.262Z,94.60
2022-08-29T04:29:13.995Z,94.60
2022-08-29T04:32:03.450Z,94.60
2022-08-29T04:34:51.485Z,94.50
2022-08-29T04:37:38.887Z,94.40
2022-08-29T04:40:26.622Z,94.50
2022-08-29T04:43:15.295Z,94.60
2022-08-29T04:46:03.767Z,94.70
2022-08-29T04:48:53.302Z,94.80
2022-08-29T04:51:40.799Z,94.90
2022-08-29T04:54:28.709Z,94.90
2022-08-29T04:57:16.712Z,95.00
2022-08-29T05:00:07.940Z,94.90
2022-08-29T05:02:56.133Z,94.90
2022-08-29T05:05:45.280Z,95.10
2022-08-29T05:08:33.051Z,95.20
2022-08-29T05:11:22.558Z,95.20
2022-08-29T05:14:10.861Z,95.30
2022-08-29T05:16:58.259Z,95.30
2022-08-29T05:19:46.077Z,95.40
2022-08-29T05:22:36.387Z,95.50
2022-08-29T05:25:24.427Z,95.50
2022-08-29T05:28:14.288Z,95.60
2022-08-29T05:31:05.704Z,95.60
2022-08-29T05:33:54.055Z,95.70
2022-08-29T05:36:41.608Z,95.80
2022-08-29T05:39:30.739Z,95.90
2022-08-29T05:42:22.195Z,96.00
2022-08-29T05:45:11.371Z,96.00
2022-08-29T05:48:04.142Z,96.20
2022-08-29T05:50:52.503Z,96.20
2022-08-29T05:53:40.330Z,96.20
2022-08-29T05:56:30.629Z,96.20
2022-08-29T05:59:19.274Z,96.30
2022-08-29T06:02:09.757Z,96.30
2022-08-29T06:04:57.525Z,96.20
2022-08-29T06:07:45.323Z,96.30
2022-08-29T06:10:33.218Z,96.20
2022-08-29T06:13:22.456Z,96.20
2022-08-29T06:16:13.872Z,96.20
2022-08-29T06:19:02.639Z,96.20
2022-08-29T06:21:50.493Z,96.20
2022-08-29T06:24:39.379Z,96.20
2022-08-29T06:27:27.501Z,96.10
2022-08-29T06:30:16.860Z,96.00
2022-08-29T06:33:04.589Z,96.00
2022-08-29T06:35:54.129Z,96.00
2022-08-29T06:38:41.880Z,96.00
2022-08-29T06:41:30.648Z,95.90
2022-08-29T06:44:21.962Z,95.90
2022-08-29T06:47:11.075Z,95.60
2022-08-29T06:49:58.695Z,95.50
2022-08-29T06:52:47.072Z,95.50
2022-08-29T06:55:37.312Z,95.30
2022-08-29T06:58:26.862Z,95.30
2022-08-29T07:01:18.152Z,95.10
2022-08-29T07:04:07.578Z,94.90
2022-08-29T07:07:02.923Z,94.90
2022-08-29T07:09:50.607Z,94.60
2022-08-29T07:12:38.687Z,94.40
2022-08-29T07:15:26.694Z,94.20
2022-08-29T07:18:14.708Z,94.10
2022-08-29T07:21:07.933Z,93.80
2022-08-29T07:23:56.183Z,93.60
2022-08-29T07:26:45.402Z,93.70
2022-08-29T07:29:33.691Z,93.70
2022-08-29T07:32:25.646Z,93.20
2022-08-29T07:35:18.382Z,93.00
2022-08-29T07:38:14.209Z,92.70
2022-08-29T07:41:02.306Z,92.10
2022-08-29T07:43:50.706Z,91.70
2022-08-29T07:46:39.129Z,91.50
2022-08-29T07:49:40.216Z,91.10
2022-08-29T07:52:30.348Z,90.80
2022-08-29T07:55:22.049Z,90.60
2022-08-29T07:58:09.965Z,90.10
2022-08-29T08:00:58.063Z,89.00
2022-08-29T08:03:45.929Z,88.00
2022-08-29T08:06:36.999Z,87.70
2022-08-29T08:09:25.241Z,86.20
2022-08-29T08:12:14.821Z,85.40
2022-08-29T08:15:03.823Z,84.80
2022-08-29T08:17:51.591Z,84.10
2022-08-29T08:20:39.604Z,83.80
2022-08-29T08:23:26.871Z,82.60
2022-08-29T08:26:16.116Z,81.40
2022-08-29T08:29:06.117Z,82.40
2022-08-29T08:31:56.307Z,80.60
2022-08-29T08:34:43.806Z,79.70
2022-08-29T08:37:31.698Z,79.10
2022-08-29T08:40:23.780Z,79.00
2022-08-29T08:43:15.002Z,78.10
2022-08-29T08:46:10.073Z,78.00
2022-08-29T08:49:02.283Z,77.40
2022-08-29T08:51:55.081Z,76.90
2022-08-29T08:54:50.141Z,75.10
2022-08-29T08:57:42.312Z,73.70
2022-08-29T09:00:36.480Z,73.10
2022-08-29T09:03:50.176Z,72.70
2022-08-29T09:06:43.587Z,72.60
2022-08-29T09:09:34.898Z,73.30
2022-08-29T09:12:36.857Z,73.20
2022-08-29T09:15:32.930Z,70.50
2022-08-29T09:18:30.552Z,69.70
2022-08-29T09:21:40.763Z,69.80
2022-08-29T09:24:39.201Z,67.90
2022-08-29T09:27:30.521Z,66.30
2022-08-29T09:30:25.811Z,65.10
2022-08-29T09:33:15.156Z,64.90
2022-08-29T09:36:05.265Z,65.30
2022-08-29T09:38:53.425Z,65.70
2022-08-29T09:41:41.757Z,63.70
2022-08-29T09:44:32.465Z,64.00
2022-08-29T09:47:24.004Z,64.10
2022-08-29T09:50:21.658Z,64.10
2022-08-29T09:53:24.438Z,63.20
2022-08-29T09:56:20.500Z,61.80
2022-08-29T09:59:18.688Z,62.60
2022-08-29T10:02:22.518Z,61.50
2022-08-29T10:05:13.409Z,62.20
2022-08-29T10:08:01.196Z,62.50
2022-08-29T10:10:57.231Z,63.70
2022-08-29T10:13:52.425Z,60.80
2022-08-29T10:16:51.802Z,61.10
2022-08-29T10:19:39.595Z,62.30
2022-08-29T10:22:36.756Z,62.40
2022-08-29T10:25:37.593Z,62.00
2022-08-29T10:28:34.860Z,61.40
2022-08-29T10:31:35.205Z,63.30
2022-08-29T10:34:36.880Z,64.30
2022-08-29T10:37:36.103Z,65.50
2022-08-29T10:40:30.546Z,64.80
2022-08-29T10:43:32.582Z,64.80
2022-08-29T10:46:47.223Z,62.30
2022-08-29T10:49:49.641Z,63.00
2022-08-29T10:52:48.337Z,63.20
2022-08-29T10:55:49.783Z,66.00
2022-08-29T10:58:53.461Z,65.20
2022-08-29T11:01:53.688Z,62.90
2022-08-29T11:04:47.067Z,63.40
2022-08-29T11:07:39.296Z,63.20
2022-08-29T11:10:31.080Z,63.70
2022-08-29T11:13:24.799Z,64.00
2022-08-29T11:16:19.040Z,64.40
2022-08-29T11:19:15.517Z,64.10
2022-08-29T11:22:14.432Z,63.10
2022-08-29T11:25:10.164Z,63.50
2022-08-29T11:28:10.380Z,62.70
2022-08-29T11:31:03.025Z,63.00
2022-08-29T11:34:00.865Z,62.90
2022-08-29T11:37:06.385Z,63.10
2022-08-29T11:40:01.093Z,63.60
2022-08-29T11:42:51.264Z,62.50
2022-08-29T11:45:43.251Z,61.60
2022-08-29T11:48:36.362Z,61.80
2022-08-29T11:51:36.174Z,61.20
2022-08-29T11:54:54.916Z,62.00
2022-08-29T11:57:45.385Z,64.30
2022-08-29T12:00:35.766Z,63.40
2022-08-29T12:03:47.145Z,63.60
2022-08-29T12:06:53.984Z,63.10
2022-08-29T12:09:50.367Z,63.50
2022-08-29T12:12:41.275Z,63.50
2022-08-29T12:15:54.126Z,61.70
2022-08-29T12:18:46.130Z,61.60
2022-08-29T12:21:49.086Z,61.80
2022-08-29T12:24:43.342Z,62.20
2022-08-29T12:28:00.328Z,63.80
2022-08-29T12:30:47.955Z,63.80
2022-08-29T12:33:49.414Z,63.20
2022-08-29T12:36:53.362Z,62.40
2022-08-29T12:40:03.289Z,60.30
2022-08-29T12:43:04.145Z,59.50
2022-08-29T12:45:52.985Z,58.70
2022-08-29T12:48:43.937Z,58.00
2022-08-29T12:51:44.658Z,58.90
2022-08-29T12:54:36.153Z,59.70
2022-08-29T12:57:29.207Z,60.50
2022-08-29T13:00:22.560Z,59.50
2022-08-29T13:03:15.331Z,59.50
2022-08-29T13:06:07.292Z,59.30
2022-08-29T13:08:55.189Z,58.50
2022-08-29T13:11:44.262Z,58.80
2022-08-29T13:14:31.882Z,57.90
2022-08-29T13:17:22.169Z,58.50
2022-08-29T13:20:40.513Z,59.70
2022-08-29T13:23:27.986Z,58.80
2022-08-29T13:26:27.679Z,58.40
2022-08-29T13:29:27.378Z,58.90
2022-08-29T13:32:27.036Z,60.20
2022-08-29T13:35:22.237Z,58.80
2022-08-29T13:38:21.112Z,58.80
2022-08-29T13:41:09.151Z,59.10
2022-08-29T13:43:57.192Z,58.70
2022-08-29T13:46:47.905Z,59.60
2022-08-29T13:49:37.244Z,58.80
2022-08-29T13:52:31.421Z,57.90
2022-08-29T13:55:19.809Z,57.90
2022-08-29T13:58:07.504Z,57.50
2022-08-29T14:00:56.338Z,57.70
2022-08-29T14:03:45.943Z,57.30
2022-08-29T14:06:34.485Z,59.20
2022-08-29T14:09:27.804Z,59.00
2022-08-29T14:12:16.212Z,58.70
2022-08-29T14:15:08.790Z,58.60
2022-08-29T14:17:57.561Z,58.90
2022-08-29T14:20:46.489Z,59.30
2022-08-29T14:23:35.075Z,59.60
2022-08-29T14:26:23.370Z,58.80
2022-08-29T14:29:11.260Z,59.20
2022-08-29T14:31:59.105Z,59.10
2022-08-29T14:34:52.461Z,59.40
2022-08-29T14:37:41.902Z,59.40
2022-08-29T14:40:30.690Z,59.20
2022-08-29T14:43:18.688Z,58.90
2022-08-29T14:46:06.578Z,61.00
2022-08-29T14:48:54.837Z,60.90
2022-08-29T14:51:44.616Z,59.20
2022-08-29T14:54:34.457Z,59.30
2022-08-29T14:57:22.349Z,58.90
2022-08-29T15:00:21.310Z,58.50
2022-08-29T15:03:10.019Z,58.10
2022-08-29T15:05:58.344Z,57.30
2022-08-29T15:08:46.513Z,58.70
2022-08-29T15:11:35.892Z,58.30
2022-08-29T15:14:23.965Z,57.30
2022-08-29T15:17:12.308Z,59.00
2022-08-29T15:23:08.755Z,57.70
2022-08-29T15:25:56.459Z,57.30
2022-08-29T15:28:45.755Z,56.60
2022-08-29T15:31:33.620Z,55.90
2022-08-29T15:34:22.361Z,57.20
2022-08-29T15:37:12.126Z,57.60
2022-08-29T15:40:00.350Z,57.00
2022-08-29T15:42:48.423Z,57.10
2022-08-29T15:45:37.904Z,57.00
2022-08-29T15:48:25.725Z,57.50
2022-08-29T15:51:13.832Z,57.00
2022-08-29T15:54:01.364Z,56.60
2022-08-29T15:56:49.447Z,56.30
2022-08-29T15:59:57.241Z,56.30
2022-08-29T16:02:47.467Z,59.10
2022-08-29T16:05:38.456Z,57.60
2022-08-29T16:08:29.489Z,59.60
2022-08-29T16:11:18.412Z,57.90
2022-08-29T16:14:40.977Z,57.60
2022-08-29T16:17:14.671Z,58.70
2022-08-29T16:20:04.751Z,59.70
2022-08-29T16:22:52.760Z,59.70
2022-08-29T16:25:40.297Z,58.60
2022-08-29T16:28:32.335Z,57.50
2022-08-29T16:31:21.225Z,57.00
2022-08-29T16:34:08.605Z,58.30
2022-08-29T16:36:59.563Z,57.80
2022-08-29T16:39:47.316Z,57.20
2022-08-29T16:42:35.520Z,58.60
2022-08-29T16:45:23.002Z,59.30
2022-08-29T16:48:15.661Z,58.20
2022-08-29T16:51:05.479Z,58.00
2022-08-29T16:53:54.309Z,59.60
2022-08-29T16:56:42.131Z,59.30
2022-08-29T16:59:29.981Z,59.10
2022-08-29T17:02:17.493Z,58.80
2022-08-29T17:05:05.971Z,59.50
2022-08-29T17:07:52.653Z,58.90
2022-08-29T17:10:40.723Z,58.50
2022-08-29T17:13:26.975Z,58.60
2022-08-29T17:16:14.833Z,59.30
2022-08-29T17:19:01.346Z,58.00
2022-08-29T17:21:48.378Z,58.20
2022-08-29T17:24:35.049Z,58.50
2022-08-29T17:27:29.382Z,60.40
2022-08-29T17:30:19.159Z,62.90
2022-08-29T17:33:11.891Z,64.80
2022-08-29T17:35:59.650Z,61.40
2022-08-29T17:38:49.222Z,62.70
2022-08-29T17:41:37.690Z,64.70
2022-08-29T17:44:27.543Z,66.40
2022-08-29T17:47:15.653Z,66.10
2022-08-29T17:50:03.593Z,66.80
2022-08-29T17:52:51.989Z,67.40
2022-08-29T17:55:40.606Z,68.00
2022-08-29T17:58:28.751Z,68.60
2022-08-29T18:01:18.559Z,69.10
2022-08-29T18:04:06.690Z,69.10
2022-08-29T18:06:55.545Z,68.90
2022-08-29T18:09:43.599Z,69.70
2022-08-29T18:12:31.620Z,70.70
2022-08-29T18:15:19.759Z,71.40
2022-08-29T18:18:09.874Z,70.40
2022-08-29T18:20:57.611Z,70.20
2022-08-29T18:23:45.520Z,71.40
2022-08-29T18:26:33.816Z,71.10
2022-08-29T18:29:22.146Z,72.00
2022-08-29T18:32:10.983Z,72.60
2022-08-29T18:35:01.053Z,72.40
2022-08-29T18:37:49.276Z,72.70
2022-08-29T18:40:39.742Z,73.40
2022-08-29T18:43:27.548Z,73.60
2022-08-29T18:46:16.183Z,73.80
2022-08-29T18:49:04.249Z,74.20
2022-08-29T18:51:53.151Z,74.40
2022-08-29T18:54:41.023Z,74.80
2022-08-29T18:57:28.892Z,74.90
2022-08-29T19:00:18.514Z,75.40
2022-08-29T19:03:07.444Z,75.80
2022-08-29T19:05:54.957Z,76.50
2022-08-29T19:08:44.326Z,76.80
2022-08-29T19:11:32.235Z,77.20
2022-08-29T19:14:19.589Z,77.30
2022-08-29T19:17:08.255Z,77.60
2022-08-29T19:20:10.626Z,78.10
2022-08-29T19:22:59.853Z,78.50
2022-08-29T19:25:48.419Z,78.60
2022-08-29T19:28:35.026Z,78.90
2022-08-29T19:31:23.407Z,79.10
2022-08-29T19:34:11.678Z,79.70
2022-08-29T19:37:00.163Z,80.10
2022-08-29T19:39:48.355Z,80.30
2022-08-29T19:42:38.046Z,81.30
2022-08-29T19:45:25.774Z,80.70
2022-08-29T19:48:15.161Z,81.10
2022-08-29T19:51:03.306Z,81.20
2022-08-29T19:53:51.295Z,81.60
2022-08-29T19:56:39.038Z,81.80
2022-08-29T19:59:28.202Z,82.10
2022-08-29T20:02:15.850Z,82.40
2022-08-29T20:05:04.833Z,82.70
2022-08-29T20:07:53.720Z,82.80
2022-08-29T20:10:41.555Z,83.20
2022-08-29T20:13:34.821Z,83.40
2022-08-29T20:16:27.746Z,83.60
2022-08-29T20:19:15.735Z,84.00
2022-08-29T20:22:03.725Z,84.10
2022-08-29T20:24:52.288Z,84.40
2022-08-29T20:27:40.398Z,84.70
2022-08-29T20:30:34.468Z,85.00
2022-08-29T20:33:23.778Z,85.10
2022-08-29T20:36:25.428Z,85.20
2022-08-29T20:39:14.203Z,85.50
2022-08-29T20:42:00.700Z,86.60
2022-08-29T20:44:48.771Z,85.80
2022-08-29T20:47:38.150Z,86.10
2022-08-29T20:53:32.034Z,86.40
2022-08-29T20:56:21.105Z,86.30
2022-08-29T20:59:08.866Z,87.50
2022-08-29T21:01:57.456Z,86.90
2022-08-29T21:04:59.199Z,87.10
2022-08-29T21:07:47.263Z,88.20
2022-08-29T21:10:34.525Z,87.60
2022-08-29T21:13:22.461Z,87.80
2022-08-29T21:16:10.402Z,88.00
2022-08-29T21:18:58.700Z,88.30
2022-08-29T21:21:46.868Z,88.50
2022-08-29T21:24:36.573Z,88.60
2022-08-29T21:27:24.761Z,88.80
2022-08-29T21:30:13.724Z,89.10
2022-08-29T21:33:01.142Z,89.20
2022-08-29T21:35:49.898Z,89.30
2022-08-29T21:38:38.273Z,89.50
2022-08-29T21:41:29.547Z,89.50
2022-08-29T21:44:17.994Z,89.50
2022-08-29T21:47:06.277Z,89.70
2022-08-29T21:49:54.397Z,89.70
2022-08-29T21:52:42.199Z,90.00
2022-08-29T21:55:30.061Z,90.10
2022-08-29T21:58:20.307Z,90.10
2022-08-29T22:01:10.502Z,90.10
2022-08-29T22:03:59.383Z,90.10
2022-08-29T22:06:52.065Z,90.20
2022-08-29T22:09:41.165Z,90.20
2022-08-29T22:12:30.183Z,90.40
2022-08-29T22:15:33.375Z,90.30
2022-08-29T22:18:20.105Z,90.40
2022-08-29T22:21:06.510Z,90.40
2022-08-29T22:23:53.146Z,90.50
2022-08-29T22:26:42.204Z,90.50
2022-08-29T22:29:30.857Z,90.50
2022-08-29T22:32:19.856Z,90.60
2022-08-29T22:35:10.914Z,90.60
2022-08-29T22:37:58.640Z,90.70
2022-08-29T22:40:48.166Z,90.70
2022-08-29T22:43:36.100Z,90.80
2022-08-29T22:46:25.999Z,90.80
2022-08-29T22:49:15.553Z,90.80
2022-08-29T22:52:03.379Z,90.90
2022-08-29T22:54:51.064Z,91.00
2022-08-29T22:57:39.050Z,91.00
2022-08-29T23:00:27.905Z,91.10
2022-08-29T23:03:16.069Z,91.10
2022-08-29T23:06:05.625Z,91.10
2022-08-29T23:08:53.919Z,91.20
2022-08-29T23:11:42.026Z,91.60
2022-08-29T23:14:29.998Z,91.20
2022-08-29T23:17:20.330Z,91.30
2022-08-29T23:20:11.462Z,91.70
2022-08-29T23:23:00.980Z,91.40
2022-08-29T23:25:48.772Z,91.30
2022-08-29T23:28:37.159Z,91.40
2022-08-29T23:31:25.048Z,91.80
2022-08-29T23:34:12.796Z,91.50
2022-08-29T23:37:00.631Z,91.50
2022-08-29T23:39:50.982Z,91.50
2022-08-29T23:42:38.553Z,91.60
2022-08-29T23:45:27.094Z,91.60
2022-08-29T23:48:15.499Z,91.70
2022-08-29T23:51:08.654Z,91.80
2022-08-29T23:53:56.284Z,91.80
2022-08-29T23:56:45.876Z,91.60
2022-08-29T23:59:48.816Z,91.90
